Time;durP1;ratioP1;P1;durP2;ratioP2;P2;SDS_P1;SDS_P2;PMS_P1;PMS_P2;Temp;Humidity;BMP_temperature;BMP_pressure;BME280_temperature;BME280_humidity;BME280_pressure;Samples;Min_cycle;Max_cycle;Signal;HPM_P1;HPM_P2
2021/01/14 00:00:20;;;;;;;26.55;4.43;;;5.50;99.90;;;;;;4942567;29;20028;-91
2021/01/14 00:02:46;;;;;;;19.48;4.13;;;5.50;99.90;;;;;;4939589;29;20147;-90
2021/01/14 00:05:12;;;;;;;23.10;4.45;;;5.60;99.90;;;;;;4939529;29;20038;-89
2021/01/14 00:07:39;;;;;;;17.85;4.22;;;5.60;99.90;;;;;;4940381;29;20087;-89
2021/01/14 00:10:06;;;;;;;18.05;4.57;;;5.60;99.90;;;;;;4938456;29;20485;-90
2021/01/14 00:12:33;;;;;;;17.13;3.45;;;5.60;99.90;;;;;;4938817;29;20123;-89
2021/01/14 00:14:59;;;;;;;18.27;3.53;;;5.60;99.90;;;;;;4939306;29;20099;-91
2021/01/14 00:17:28;;;;;;;21.55;3.83;;;5.60;99.90;;;;;;4938946;29;20027;-90
2021/01/14 00:19:56;;;;;;;16.00;2.72;;;5.60;99.90;;;;;;4947477;29;20075;-89
2021/01/14 00:22:22;;;;;;;12.07;2.78;;;5.60;99.90;;;;;;4956398;29;20027;-92
2021/01/14 00:24:48;;;;;;;21.10;3.88;;;5.60;99.90;;;;;;4956090;29;20035;-90
2021/01/14 00:27:16;;;;;;;15.68;3.45;;;5.60;99.90;;;;;;4939395;29;20031;-92
2021/01/14 00:29:42;;;;;;;16.05;3.92;;;5.50;99.90;;;;;;4939006;29;20058;-91
2021/01/14 00:32:08;;;;;;;28.80;4.10;;;5.30;99.90;;;;;;4938939;29;20167;-89
2021/01/14 00:34:34;;;;;;;16.50;3.28;;;5.30;99.90;;;;;;4939066;29;20034;-90
2021/01/14 00:39:44;;;;;;;9.10;2.38;;;5.20;99.90;;;;;;4958783;29;20393;-90
2021/01/14 00:42:17;;;;;;;20.05;2.95;;;5.30;99.90;;;;;;4942169;29;20031;-90
2021/01/14 00:44:43;;;;;;;12.32;3.35;;;5.30;99.90;;;;;;4962235;28;20059;-90
2021/01/14 00:47:09;;;;;;;11.45;2.67;;;5.40;99.90;;;;;;4948858;29;20023;-89
2021/01/14 00:49:37;;;;;;;13.32;2.72;;;5.40;99.90;;;;;;4944638;29;20488;-90
2021/01/14 00:52:03;;;;;;;11.50;2.92;;;5.30;99.90;;;;;;4944749;29;20047;-90
2021/01/14 00:54:29;;;;;;;18.45;3.03;;;5.30;99.90;;;;;;4943548;29;20132;-90
2021/01/14 00:56:55;;;;;;;9.25;3.17;;;5.20;99.90;;;;;;4943277;29;20043;-90
2021/01/14 00:59:21;;;;;;;11.98;2.80;;;5.30;99.90;;;;;;4943950;29;20027;-90
2021/01/14 01:01:51;;;;;;;11.13;2.28;;;5.40;99.90;;;;;;4944581;29;20493;-89
2021/01/14 01:04:19;;;;;;;18.02;3.78;;;5.50;99.90;;;;;;4950168;29;20031;-90
2021/01/14 01:06:45;;;;;;;14.82;2.88;;;5.50;99.90;;;;;;4944903;29;20122;-88
2021/01/14 01:09:11;;;;;;;13.00;2.50;;;5.40;99.90;;;;;;4943269;29;20066;-89
2021/01/14 01:11:38;;;;;;;15.60;3.38;;;5.40;99.90;;;;;;4944869;29;20035;-90
2021/01/14 01:14:04;;;;;;;15.05;2.65;;;5.30;99.90;;;;;;4959386;28;20540;-89
2021/01/14 01:16:30;;;;;;;10.40;2.55;;;5.30;99.90;;;;;;4941965;29;20034;-90
2021/01/14 01:19:06;;;;;;;13.20;2.40;;;5.30;99.90;;;;;;4941558;29;20031;-90
2021/01/14 01:21:31;;;;;;;10.75;2.55;;;5.30;99.90;;;;;;4941348;29;20024;-90
2021/01/14 01:23:57;;;;;;;10.32;2.72;;;5.30;99.90;;;;;;4942400;29;20027;-90
2021/01/14 01:26:26;;;;;;;11.27;2.90;;;5.30;99.90;;;;;;4959727;29;20547;-90
2021/01/14 01:28:52;;;;;;;15.02;2.90;;;5.30;99.90;;;;;;4960425;29;20094;-90
2021/01/14 01:31:18;;;;;;;20.13;3.13;;;5.20;99.90;;;;;;4946396;29;20035;-90
2021/01/14 01:33:44;;;;;;;19.63;3.28;;;5.30;99.90;;;;;;4944921;29;20118;-90
2021/01/14 01:36:13;;;;;;;10.35;2.38;;;5.30;99.90;;;;;;4943090;29;20055;-89
2021/01/14 01:38:40;;;;;;;15.10;2.90;;;5.30;99.90;;;;;;4939942;29;20158;-89
2021/01/14 01:41:06;;;;;;;11.43;3.05;;;5.40;99.90;;;;;;4941238;29;20031;-89
2021/01/14 01:43:34;;;;;;;13.07;2.72;;;5.40;99.90;;;;;;4956774;29;20397;-90
2021/01/14 01:46:04;;;;;;;14.07;3.45;;;5.40;99.90;;;;;;4941160;29;20452;-90
2021/01/14 01:48:30;;;;;;;12.43;2.90;;;5.30;99.90;;;;;;4942990;29;20036;-89
2021/01/14 01:50:58;;;;;;;11.80;3.30;;;5.50;99.90;;;;;;4943181;29;20027;-89
2021/01/14 01:53:23;;;;;;;9.15;2.00;;;5.40;99.90;;;;;;4959287;29;20122;-88
2021/01/14 01:55:50;;;;;;;9.38;2.72;;;5.50;99.90;;;;;;4943524;29;20067;-91
2021/01/14 01:58:23;;;;;;;10.73;2.15;;;5.50;99.90;;;;;;4942415;29;20031;-89
2021/01/14 02:00:52;;;;;;;12.23;2.90;;;5.40;99.90;;;;;;4941650;29;20023;-90
2021/01/14 02:03:19;;;;;;;13.75;2.25;;;5.30;99.90;;;;;;4944943;29;20031;-89
2021/01/14 02:05:44;;;;;;;12.07;2.72;;;5.40;99.90;;;;;;4943298;29;20094;-90
2021/01/14 02:08:21;;;;;;;7.88;2.20;;;5.30;99.90;;;;;;4941828;29;20039;-89
2021/01/14 02:10:55;;;;;;;11.48;3.28;;;5.30;99.90;;;;;;4942118;29;20034;-89
2021/01/14 02:14:01;;;;;;;15.13;3.38;;;5.30;99.90;;;;;;4942669;29;20130;-89
2021/01/14 02:16:27;;;;;;;10.13;2.33;;;5.20;99.90;;;;;;4943847;29;20098;-89
2021/01/14 02:18:55;;;;;;;13.93;2.55;;;5.20;99.90;;;;;;4942385;29;20083;-89
2021/01/14 02:21:24;;;;;;;8.40;2.47;;;5.30;99.90;;;;;;4941610;29;20070;-89
2021/01/14 02:24:06;;;;;;;12.75;2.97;;;5.20;99.90;;;;;;4940297;29;20039;-89
2021/01/14 02:26:34;;;;;;;17.45;2.83;;;5.20;99.90;;;;;;4957619;29;20118;-89
2021/01/14 02:29:02;;;;;;;16.40;3.08;;;5.30;99.90;;;;;;4957318;29;20027;-89
2021/01/14 02:31:28;;;;;;;11.70;2.60;;;5.30;99.90;;;;;;4955894;29;20139;-89
2021/01/14 02:33:56;;;;;;;15.38;3.22;;;5.30;99.90;;;;;;4939959;29;20047;-89
2021/01/14 02:36:23;;;;;;;8.52;1.92;;;5.30;99.90;;;;;;4940398;29;20038;-90
2021/01/14 02:38:50;;;;;;;11.73;2.42;;;5.40;99.90;;;;;;4939509;29;20086;-89
2021/01/14 02:41:15;;;;;;;10.05;2.40;;;5.50;99.90;;;;;;4949869;29;20090;-89
2021/01/14 02:43:42;;;;;;;12.27;2.47;;;5.50;99.90;;;;;;4960441;29;20036;-90
2021/01/14 02:46:09;;;;;;;10.25;2.08;;;5.50;99.90;;;;;;4960602;29;20046;-90
2021/01/14 02:48:40;;;;;;;6.45;2.40;;;5.50;99.90;;;;;;4939587;29;20037;-89
2021/01/14 02:51:12;;;;;;;9.75;2.45;;;5.50;99.90;;;;;;4940374;29;20114;-89
2021/01/14 02:53:39;;;;;;;9.80;2.53;;;5.50;99.90;;;;;;4939699;29;20093;-89
2021/01/14 02:56:06;;;;;;;13.50;3.00;;;5.30;99.90;;;;;;4939514;29;20027;-90
2021/01/14 02:58:34;;;;;;;12.00;3.08;;;5.20;99.90;;;;;;4939314;29;20034;-89
2021/01/14 03:01:01;;;;;;;11.55;2.55;;;5.30;99.90;;;;;;4940042;29;20126;-89
2021/01/14 03:03:27;;;;;;;9.57;2.47;;;5.20;99.90;;;;;;4939330;29;20118;-90
2021/01/14 03:05:53;;;;;;;7.88;2.42;;;5.30;99.90;;;;;;4938587;29;20038;-89
2021/01/14 03:08:19;;;;;;;7.90;2.45;;;5.40;99.90;;;;;;4938231;29;20031;-89
2021/01/14 03:10:45;;;;;;;12.77;2.67;;;5.50;99.90;;;;;;4938668;29;20027;-89
2021/01/14 03:13:11;;;;;;;11.52;2.55;;;5.50;99.90;;;;;;4938609;29;20032;-89
2021/01/14 03:15:36;;;;;;;9.63;2.53;;;5.40;99.90;;;;;;4938256;29;20239;-90
2021/01/14 03:18:02;;;;;;;14.52;2.53;;;5.40;99.90;;;;;;4938976;29;20035;-89
2021/01/14 03:20:28;;;;;;;11.70;2.28;;;5.40;99.90;;;;;;4938537;29;20035;-89
2021/01/14 03:22:54;;;;;;;9.88;2.50;;;5.40;99.90;;;;;;4938273;29;20111;-90
2021/01/14 03:25:20;;;;;;;6.95;1.80;;;5.30;99.90;;;;;;4938859;29;20074;-90
2021/01/14 03:27:46;;;;;;;12.25;2.47;;;5.20;99.90;;;;;;4937961;29;20123;-90
2021/01/14 03:30:15;;;;;;;11.60;2.53;;;5.00;99.90;;;;;;4937896;29;20023;-90
2021/01/14 03:32:41;;;;;;;11.85;2.22;;;5.10;99.90;;;;;;4938297;29;20054;-90
2021/01/14 03:35:08;;;;;;;7.15;1.80;;;5.20;99.90;;;;;;4938332;29;20031;-90
2021/01/14 03:37:41;;;;;;;11.18;2.25;;;5.30;99.90;;;;;;4938267;29;20054;-90
2021/01/14 03:40:09;;;;;;;10.23;1.90;;;5.20;99.90;;;;;;4938089;29;20146;-90
2021/01/14 03:42:38;;;;;;;9.25;1.92;;;5.20;99.90;;;;;;4940849;29;20027;-89
2021/01/14 03:45:07;;;;;;;9.02;2.00;;;5.10;99.90;;;;;;4941123;29;20118;-90
2021/01/14 03:47:34;;;;;;;8.70;2.28;;;5.10;99.90;;;;;;4955238;29;20086;-90
2021/01/14 03:50:00;;;;;;;10.18;1.75;;;5.10;99.90;;;;;;4938963;29;20035;-89
2021/01/14 03:52:26;;;;;;;14.45;2.22;;;5.10;99.90;;;;;;4938351;29;20031;-90
2021/01/14 03:54:52;;;;;;;7.57;2.42;;;5.20;99.90;;;;;;4938109;29;20082;-89
2021/01/14 03:57:18;;;;;;;9.68;2.03;;;5.20;99.90;;;;;;4938047;29;20034;-89
2021/01/14 03:59:44;;;;;;;4.45;1.80;;;5.30;99.90;;;;;;4955286;29;20039;-89
2021/01/14 04:02:10;;;;;;;6.78;1.98;;;5.10;99.90;;;;;;4937953;29;20031;-89
2021/01/14 04:04:39;;;;;;;16.08;2.20;;;5.20;99.90;;;;;;4938530;29;20054;-89
2021/01/14 04:07:08;;;;;;;10.00;2.28;;;5.20;99.90;;;;;;4956392;29;20099;-89
2021/01/14 04:09:37;;;;;;;10.48;1.92;;;5.30;99.90;;;;;;4937573;29;20126;-88
2021/01/14 04:12:04;;;;;;;8.38;2.40;;;5.20;99.90;;;;;;4937686;29;20039;-89
2021/01/14 04:14:30;;;;;;;8.23;2.22;;;5.20;99.90;;;;;;4938086;29;20059;-88
2021/01/14 04:16:56;;;;;;;7.95;2.55;;;5.20;99.90;;;;;;4938194;29;20032;-89
2021/01/14 04:19:22;;;;;;;11.23;2.78;;;5.10;99.90;;;;;;4938904;29;20027;-89
2021/01/14 04:21:48;;;;;;;13.45;3.10;;;5.10;99.90;;;;;;4941815;29;20386;-88
2021/01/14 04:24:14;;;;;;;12.15;2.13;;;5.20;99.90;;;;;;4958979;29;20034;-89
2021/01/14 04:26:39;;;;;;;10.50;2.13;;;4.90;99.90;;;;;;4941771;29;20079;-89
2021/01/14 04:29:06;;;;;;;6.25;2.05;;;4.90;99.90;;;;;;4941712;29;20027;-90
2021/01/14 04:31:34;;;;;;;5.50;1.75;;;5.00;99.90;;;;;;4941632;29;20552;-89
2021/01/14 04:34:04;;;;;;;11.30;2.17;;;5.10;99.90;;;;;;4941512;29;20477;-89
2021/01/14 04:36:30;;;;;;;14.13;1.85;;;5.20;99.90;;;;;;4941328;29;20027;-88
2021/01/14 04:38:56;;;;;;;11.73;2.13;;;4.90;99.90;;;;;;4941224;29;20055;-88
2021/01/14 04:41:22;;;;;;;11.70;2.15;;;5.00;99.90;;;;;;4941883;29;20167;-89
2021/01/14 04:43:49;;;;;;;10.27;1.83;;;5.00;99.90;;;;;;4941509;29;20038;-89
2021/01/14 04:46:16;;;;;;;9.95;2.40;;;4.90;99.90;;;;;;4941510;29;20091;-89
2021/01/14 04:48:48;;;;;;;5.45;2.08;;;4.80;99.90;;;;;;4942078;29;20095;-89
2021/01/14 04:51:18;;;;;;;11.50;2.00;;;4.80;99.90;;;;;;4941468;29;20027;-88
2021/01/14 04:53:45;;;;;;;6.45;2.55;;;4.80;99.90;;;;;;4941395;29;20027;-88
2021/01/14 04:56:12;;;;;;;9.30;2.05;;;4.70;99.90;;;;;;4941856;29;20091;-89
2021/01/14 04:58:40;;;;;;;14.80;3.55;;;4.70;99.90;;;;;;4941416;29;20046;-89
2021/01/14 05:01:16;;;;;;;6.90;1.95;;;4.50;99.90;;;;;;4959080;29;20106;-90
2021/01/14 05:03:48;;;;;;;8.48;2.10;;;4.60;99.90;;;;;;4972158;29;20031;-88
2021/01/14 05:06:19;;;;;;;11.55;2.60;;;4.60;99.90;;;;;;4961983;29;20030;-90
2021/01/14 05:08:49;;;;;;;10.18;2.15;;;4.50;99.90;;;;;;4956205;29;20075;-90
2021/01/14 05:11:16;;;;;;;14.35;3.38;;;4.40;99.90;;;;;;4943171;29;20028;-89
2021/01/14 05:13:45;;;;;;;11.25;2.45;;;4.40;99.90;;;;;;4958688;29;20068;-90
2021/01/14 05:16:12;;;;;;;18.05;2.33;;;4.40;99.90;;;;;;4942091;29;20039;-89
2021/01/14 05:18:38;;;;;;;6.63;2.03;;;4.40;99.90;;;;;;4942174;29;20094;-89
2021/01/14 05:21:04;;;;;;;8.30;1.95;;;4.30;99.90;;;;;;4942874;29;20031;-89
2021/01/14 05:23:32;;;;;;;9.85;2.30;;;4.30;99.90;;;;;;4943688;29;20042;-90
2021/01/14 05:26:01;;;;;;;8.25;2.00;;;4.30;99.90;;;;;;4943897;29;20035;-90
2021/01/14 05:28:29;;;;;;;8.40;2.90;;;4.40;99.90;;;;;;4946735;29;20051;-90
2021/01/14 05:31:16;;;;;;;6.50;2.40;;;4.40;99.90;;;;;;4964803;28;20031;-90
2021/01/14 05:33:57;;;;;;;10.18;2.38;;;4.40;99.90;;;;;;4951386;29;20175;-89
2021/01/14 05:36:23;;;;;;;12.77;2.80;;;4.40;99.90;;;;;;4965781;29;20027;-90
2021/01/14 05:38:49;;;;;;;6.95;2.42;;;4.40;99.90;;;;;;4976690;28;20043;-90
2021/01/14 05:41:21;;;;;;;8.15;2.70;;;4.40;99.90;;;;;;4963021;29;20018;-88
2021/01/14 05:44:02;;;;;;;12.45;3.13;;;4.40;99.90;;;;;;4963891;29;20066;-88
2021/01/14 05:46:30;;;;;;;11.98;2.58;;;4.50;99.90;;;;;;4963222;29;20075;-88
2021/01/14 05:48:58;;;;;;;12.75;2.75;;;4.30;99.90;;;;;;4964012;29;20019;-91
2021/01/14 05:51:28;;;;;;;10.18;2.72;;;4.20;99.90;;;;;;4960335;29;20031;-89
2021/01/14 05:54:06;;;;;;;8.68;2.30;;;4.30;99.90;;;;;;4950970;29;20058;-89
2021/01/14 05:56:34;;;;;;;14.68;2.78;;;4.30;99.90;;;;;;4958213;29;20024;-90
2021/01/14 05:59:09;;;;;;;9.23;2.60;;;4.50;99.90;;;;;;4980124;28;20015;-93
2021/01/14 06:01:37;;;;;;;13.82;3.95;;;4.30;99.90;;;;;;4964197;28;20031;-89
2021/01/14 06:04:17;;;;;;;13.80;2.97;;;4.30;99.90;;;;;;4963291;29;20026;-89
2021/01/14 06:06:44;;;;;;;11.95;3.25;;;4.30;99.90;;;;;;4964005;28;20039;-90
2021/01/14 06:09:14;;;;;;;17.45;4.15;;;4.40;99.90;;;;;;4980421;28;20039;-90
2021/01/14 06:11:41;;;;;;;12.55;2.88;;;4.30;99.90;;;;;;4963836;29;20022;-90
2021/01/14 06:14:07;;;;;;;16.10;3.67;;;4.30;99.90;;;;;;4957345;29;20035;-90
2021/01/14 06:16:49;;;;;;;16.40;3.55;;;4.20;99.90;;;;;;4947680;29;20024;-90
2021/01/14 06:19:14;;;;;;;14.93;3.28;;;4.30;99.90;;;;;;4946775;29;20339;-90
2021/01/14 06:21:45;;;;;;;14.73;3.42;;;4.30;99.90;;;;;;4949403;29;20062;-90
2021/01/14 06:24:24;;;;;;;10.23;2.58;;;4.40;99.90;;;;;;4948333;29;20035;-90
2021/01/14 06:27:14;;;;;;;13.57;2.88;;;4.50;99.90;;;;;;4948966;29;20095;-90
2021/01/14 06:29:42;;;;;;;9.07;3.03;;;4.40;99.90;;;;;;4942359;29;20028;-90
2021/01/14 06:32:26;;;;;;;10.43;2.97;;;4.30;99.90;;;;;;4940029;29;20082;-89
2021/01/14 06:34:52;;;;;;;10.68;2.55;;;4.30;99.90;;;;;;4936738;29;20050;-90
2021/01/14 06:37:21;;;;;;;10.88;2.85;;;4.30;99.90;;;;;;4940271;29;20442;-91
2021/01/14 06:39:49;;;;;;;15.65;3.30;;;4.40;99.90;;;;;;4939555;29;20055;-90
2021/01/14 06:42:20;;;;;;;26.20;4.03;;;4.40;99.90;;;;;;4938484;29;20063;-89
2021/01/14 06:44:51;;;;;;;19.65;3.83;;;4.40;99.90;;;;;;4941265;29;20027;-91
2021/01/14 06:47:32;;;;;;;16.85;3.35;;;4.40;99.90;;;;;;4940118;29;20023;-91
2021/01/14 06:50:16;;;;;;;9.07;3.50;;;4.50;99.90;;;;;;4939162;29;20038;-91
2021/01/14 06:52:57;;;;;;;28.88;3.95;;;4.50;99.90;;;;;;4939072;29;20066;-91
2021/01/14 06:55:27;;;;;;;25.90;4.13;;;4.40;99.90;;;;;;4939436;29;20032;-89
2021/01/14 06:58:04;;;;;;;22.73;4.43;;;4.40;99.90;;;;;;4939376;29;20031;-90
2021/01/14 07:00:31;;;;;;;19.85;4.63;;;4.30;99.90;;;;;;4939025;29;20557;-91
2021/01/14 07:03:21;;;;;;;18.98;4.35;;;4.10;99.90;;;;;;4938802;29;20035;-89
2021/01/14 07:05:53;;;;;;;38.28;5.47;;;4.10;99.90;;;;;;4934158;29;20134;-89
2021/01/14 07:08:35;;;;;;;29.88;4.65;;;4.20;99.90;;;;;;4939867;29;20513;-90
2021/01/14 07:11:16;;;;;;;31.38;5.05;;;4.10;99.90;;;;;;4939302;29;20098;-91
2021/01/14 07:13:51;;;;;;;30.90;4.97;;;4.10;99.90;;;;;;4940046;29;20079;-89
2021/01/14 07:16:19;;;;;;;26.80;5.07;;;4.00;99.90;;;;;;4940035;29;20027;-90
2021/01/14 07:18:48;;;;;;;16.92;4.40;;;4.00;99.90;;;;;;4940011;29;20366;-91
2021/01/14 07:21:27;;;;;;;15.68;4.47;;;3.90;99.90;;;;;;4947208;29;20011;-90
2021/01/14 07:24:00;;;;;;;19.80;4.25;;;4.00;99.90;;;;;;4973756;29;20035;-91
2021/01/14 07:26:29;;;;;;;18.58;4.22;;;4.00;99.90;;;;;;4950981;29;20054;-90
2021/01/14 07:28:55;;;;;;;24.80;4.43;;;3.90;99.90;;;;;;4945192;29;20075;-91
2021/01/14 07:31:26;;;;;;;30.23;5.20;;;4.00;99.90;;;;;;4944862;29;20094;-90
2021/01/14 07:33:53;;;;;;;36.95;5.03;;;3.90;99.90;;;;;;4940884;29;20057;-90
2021/01/14 07:36:26;;;;;;;30.95;4.80;;;3.90;99.90;;;;;;4958631;29;20039;-89
2021/01/14 07:38:59;;;;;;;14.65;3.85;;;3.80;99.90;;;;;;4938605;29;20062;-90
2021/01/14 07:41:24;;;;;;;24.55;3.90;;;3.90;99.90;;;;;;4956437;29;20027;-89
2021/01/14 07:43:51;;;;;;;26.42;3.85;;;3.90;99.90;;;;;;4955553;29;20096;-90
2021/01/14 07:46:22;;;;;;;31.02;4.57;;;4.00;99.90;;;;;;4940236;29;20102;-90
2021/01/14 07:48:50;;;;;;;18.27;3.22;;;4.00;99.90;;;;;;4963285;29;20106;-90
2021/01/14 07:51:16;;;;;;;13.18;3.45;;;3.90;99.90;;;;;;4945805;29;20505;-90
2021/01/14 07:53:42;;;;;;;15.52;3.97;;;3.80;99.90;;;;;;4938396;29;20065;-89
2021/01/14 07:56:24;;;;;;;14.02;2.63;;;3.80;99.90;;;;;;4938953;29;20031;-90
2021/01/14 07:58:56;;;;;;;13.93;2.83;;;3.80;99.90;;;;;;4939513;29;20075;-90
2021/01/14 08:01:22;;;;;;;19.25;2.97;;;3.90;99.90;;;;;;4938404;29;20031;-90
2021/01/14 08:03:48;;;;;;;11.63;2.95;;;3.80;99.90;;;;;;4938520;29;20126;-89
2021/01/14 08:06:22;;;;;;;12.68;3.00;;;3.80;99.90;;;;;;4938302;29;20081;-90
2021/01/14 08:09:08;;;;;;;18.05;3.55;;;3.80;99.90;;;;;;4938459;29;20027;-89
2021/01/14 08:11:59;;;;;;;15.50;3.65;;;4.00;99.90;;;;;;4941112;28;20043;-92
2021/01/14 08:14:37;;;;;;;11.10;3.20;;;3.80;99.90;;;;;;4933921;29;20035;-90
2021/01/14 08:17:20;;;;;;;12.38;3.25;;;3.90;99.90;;;;;;4939191;29;20511;-90
2021/01/14 08:19:48;;;;;;;16.67;3.45;;;3.90;99.90;;;;;;4938217;29;20023;-90
2021/01/14 08:22:14;;;;;;;17.73;4.10;;;3.90;99.90;;;;;;4955099;29;20466;-90
2021/01/14 08:24:44;;;;;;;15.70;3.28;;;3.70;99.90;;;;;;4957161;29;20070;-90
2021/01/14 08:27:32;;;;;;;16.08;4.45;;;3.60;99.90;;;;;;4957153;29;20410;-90
2021/01/14 08:30:03;;;;;;;11.02;3.15;;;3.60;99.90;;;;;;4938411;29;20517;-88
2021/01/14 08:32:47;;;;;;;8.23;3.05;;;3.70;99.90;;;;;;4937816;29;20046;-89
2021/01/14 08:35:15;;;;;;;10.93;3.17;;;3.70;99.90;;;;;;4937573;29;20118;-89
2021/01/14 08:38:19;;;;;;;13.77;3.28;;;3.70;99.90;;;;;;4955034;29;20315;-89
2021/01/14 08:40:49;;;;;;;17.42;3.28;;;3.70;99.90;;;;;;4916244;29;20043;-89
2021/01/14 08:43:23;;;;;;;11.25;4.07;;;3.70;99.90;;;;;;4937828;29;20118;-89
2021/01/14 08:45:55;;;;;;;17.50;3.35;;;3.70;99.90;;;;;;4908980;29;20138;-89
2021/01/14 08:48:31;;;;;;;10.45;3.05;;;3.60;99.90;;;;;;4938242;29;20051;-90
2021/01/14 08:50:56;;;;;;;15.05;3.22;;;3.60;99.90;;;;;;4938296;29;20031;-89
2021/01/14 08:53:25;;;;;;;16.60;3.08;;;3.70;99.90;;;;;;4938494;29;20393;-90
2021/01/14 08:56:05;;;;;;;11.90;2.95;;;3.60;99.90;;;;;;4938038;29;20031;-89
2021/01/14 08:58:46;;;;;;;11.43;3.60;;;3.70;99.90;;;;;;4939097;29;20477;-90
2021/01/14 09:01:17;;;;;;;14.50;3.65;;;3.60;99.90;;;;;;4938445;29;20091;-91
2021/01/14 09:03:45;;;;;;;11.80;2.97;;;3.60;99.90;;;;;;4939688;29;20210;-90
2021/01/14 09:06:10;;;;;;;12.93;3.25;;;3.70;99.90;;;;;;4941858;29;20473;-92
2021/01/14 09:08:36;;;;;;;16.92;3.10;;;3.70;99.90;;;;;;4943225;29;20075;-90
2021/01/14 09:11:02;;;;;;;12.77;3.17;;;3.70;99.90;;;;;;4944129;29;20522;-89
2021/01/14 09:13:30;;;;;;;10.52;2.63;;;3.60;99.90;;;;;;4943224;29;20035;-89
2021/01/14 09:16:10;;;;;;;17.35;3.13;;;3.60;99.90;;;;;;4944301;29;20088;-89
2021/01/14 09:18:41;;;;;;;11.38;2.90;;;3.60;99.90;;;;;;4944231;29;20027;-90
2021/01/14 09:21:08;;;;;;;14.98;3.75;;;3.60;99.90;;;;;;4944182;29;20088;-90
2021/01/14 09:23:36;;;;;;;10.82;2.85;;;3.70;99.90;;;;;;4944939;29;20082;-90
2021/01/14 09:26:20;;;;;;;13.57;4.43;;;3.60;99.90;;;;;;4962567;29;20058;-90
2021/01/14 09:28:53;;;;;;;18.48;3.40;;;3.60;99.90;;;;;;4944869;29;20027;-89
2021/01/14 09:31:24;;;;;;;20.02;3.42;;;3.60;99.90;;;;;;4944483;29;20030;-91
2021/01/14 09:33:50;;;;;;;11.95;3.15;;;3.70;99.90;;;;;;4945420;29;20031;-91
2021/01/14 09:36:20;;;;;;;12.82;3.63;;;3.70;99.90;;;;;;4946048;29;20083;-88
2021/01/14 09:38:52;;;;;;;21.77;3.55;;;3.70;99.90;;;;;;4949674;29;20075;-89
2021/01/14 09:41:25;;;;;;;10.60;3.22;;;3.60;99.90;;;;;;4955145;29;20059;-88
2021/01/14 09:43:56;;;;;;;10.13;3.10;;;3.60;99.90;;;;;;4960895;29;20035;-88
2021/01/14 09:46:24;;;;;;;11.45;3.17;;;3.70;99.90;;;;;;4960255;29;20035;-89
2021/01/14 09:48:59;;;;;;;12.13;3.30;;;3.60;99.90;;;;;;4955502;29;20031;-89
2021/01/14 09:51:25;;;;;;;11.55;3.53;;;3.60;99.90;;;;;;4954332;29;20028;-89
2021/01/14 09:53:51;;;;;;;11.02;3.03;;;3.70;99.90;;;;;;4952637;29;20055;-90
2021/01/14 09:56:30;;;;;;;10.75;3.33;;;3.70;99.90;;;;;;4948150;29;20039;-92
2021/01/14 09:59:11;;;;;;;16.65;3.33;;;3.60;99.90;;;;;;4946624;29;20038;-90
2021/01/14 10:01:43;;;;;;;10.77;3.58;;;3.70;99.90;;;;;;4944960;29;20032;-89
2021/01/14 10:04:13;;;;;;;10.50;3.38;;;3.60;99.90;;;;;;4945064;29;20413;-90
2021/01/14 10:06:43;;;;;;;11.52;3.97;;;3.70;99.90;;;;;;4945718;29;20035;-89
2021/01/14 10:09:15;;;;;;;10.73;3.58;;;3.70;99.90;;;;;;4944813;29;20059;-88
2021/01/14 10:11:42;;;;;;;7.88;3.17;;;3.70;99.90;;;;;;4943427;29;20062;-90
2021/01/14 10:14:17;;;;;;;9.40;2.58;;;3.70;99.90;;;;;;4945696;29;20572;-89
2021/01/14 10:16:44;;;;;;;10.20;3.10;;;3.70;99.90;;;;;;4952987;29;20035;-91
2021/01/14 10:19:11;;;;;;;5.82;2.90;;;3.60;99.90;;;;;;4969964;29;20027;-89
2021/01/14 10:21:38;;;;;;;8.52;3.05;;;3.70;99.90;;;;;;4946373;29;20023;-90
2021/01/14 10:24:05;;;;;;;10.60;2.92;;;3.70;99.90;;;;;;4945593;29;20071;-90
2021/01/14 10:26:31;;;;;;;10.60;3.10;;;3.60;99.90;;;;;;4946320;29;20027;-90
2021/01/14 10:28:57;;;;;;;9.73;4.38;;;3.70;99.90;;;;;;4931298;29;20127;-91
2021/01/14 10:31:37;;;;;;;13.45;5.03;;;3.70;99.90;;;;;;4961080;29;20072;-90
2021/01/14 10:34:04;;;;;;;9.38;3.30;;;3.60;99.90;;;;;;4945027;29;20042;-90
2021/01/14 10:36:50;;;;;;;10.82;3.47;;;3.70;99.90;;;;;;4963229;29;20027;-90
2021/01/14 10:39:18;;;;;;;11.70;3.92;;;3.70;99.90;;;;;;4965647;29;20051;-90
2021/01/14 10:41:49;;;;;;;11.45;3.30;;;3.60;99.90;;;;;;4932886;29;20069;-90
2021/01/14 10:44:14;;;;;;;15.30;3.83;;;3.50;99.90;;;;;;4950552;29;20039;-89
2021/01/14 10:46:44;;;;;;;9.00;3.95;;;3.50;99.90;;;;;;4917795;29;20055;-88
2021/01/14 10:49:11;;;;;;;12.88;5.15;;;3.50;99.90;;;;;;4933176;29;20564;-91
2021/01/14 10:51:40;;;;;;;11.13;4.80;;;3.40;99.90;;;;;;4952054;29;20050;-91
2021/01/14 10:54:09;;;;;;;71.47;26.70;;;3.30;99.90;;;;;;4945422;29;20027;-83
2021/01/14 10:56:52;;;;;;;21.13;6.55;;;3.40;99.90;;;;;;4956402;29;20035;-81
2021/01/14 10:59:23;;;;;;;21.65;7.03;;;3.40;99.90;;;;;;4924201;29;20042;-81
2021/01/14 11:02:06;;;;;;;19.55;5.97;;;3.40;99.90;;;;;;4940022;29;20042;-82
2021/01/14 11:04:32;;;;;;;14.68;5.63;;;3.40;99.90;;;;;;4959413;29;20024;-82
2021/01/14 11:06:57;;;;;;;15.70;5.38;;;3.40;99.90;;;;;;4942529;29;20035;-82
2021/01/14 11:09:24;;;;;;;31.42;12.13;;;3.40;99.90;;;;;;4941486;29;20430;-81
2021/01/14 11:11:49;;;;;;;16.60;6.47;;;3.50;99.90;;;;;;4958725;29;20027;-81
2021/01/14 11:14:16;;;;;;;61.80;31.55;;;3.50;99.90;;;;;;4924369;29;20028;-80
2021/01/14 11:16:42;;;;;;;26.45;9.60;;;3.50;99.90;;;;;;4956288;29;20102;-80
2021/01/14 11:19:08;;;;;;;17.80;6.40;;;3.40;99.90;;;;;;4956621;29;20055;-80
2021/01/14 11:21:42;;;;;;;12.70;5.28;;;3.40;99.90;;;;;;4928392;29;20035;-93
2021/01/14 11:24:15;;;;;;;11.25;4.60;;;3.40;99.90;;;;;;4937259;29;20038;-93
2021/01/14 11:26:42;;;;;;;13.30;5.25;;;3.30;99.90;;;;;;4969618;29;20037;-90
2021/01/14 11:29:12;;;;;;;16.38;5.03;;;3.30;99.90;;;;;;4970351;28;20041;-91
2021/01/14 11:31:40;;;;;;;14.40;4.82;;;3.30;99.90;;;;;;4948040;29;20028;-90
2021/01/14 11:34:08;;;;;;;12.80;4.85;;;3.20;99.90;;;;;;4946403;29;20027;-92
2021/01/14 11:36:33;;;;;;;17.65;5.68;;;3.20;99.90;;;;;;4928135;29;20112;-92
2021/01/14 11:39:07;;;;;;;12.20;4.80;;;3.20;99.90;;;;;;4945168;29;20084;-92
2021/01/14 11:41:38;;;;;;;13.85;4.80;;;3.30;99.90;;;;;;4930641;29;20027;-91
2021/01/14 11:44:04;;;;;;;10.57;4.15;;;3.30;99.90;;;;;;4945217;29;20366;-89
2021/01/14 11:46:55;;;;;;;10.07;4.32;;;3.30;99.90;;;;;;4957989;29;20031;-92
2021/01/14 11:49:55;;;;;;;;;;;;;;;;;;;;;
2021/01/14 11:52:38;;;;;;;11.63;4.30;;;3.20;99.90;;;;;;4955355;29;20039;-92
2021/01/14 11:55:20;;;;;;;;;;;;;;;;;;;;;
2021/01/14 11:58:00;;;;;;;11.05;5.30;;;3.30;99.90;;;;;;4958224;29;20114;-92
2021/01/14 12:00:31;;;;;;;15.23;5.93;;;3.30;99.90;;;;;;4942053;29;20425;-91
2021/01/14 12:03:39;;;;;;;;;;;;;;;;;;;;;
2021/01/14 12:06:15;;;;;;;10.85;5.05;;;3.30;99.90;;;;;;4937007;29;20048;-89
2021/01/14 12:08:51;;;;;;;12.40;4.68;;;3.20;99.90;;;;;;4955930;29;20043;-92
2021/01/14 12:11:22;;;;;;;11.30;5.57;;;3.20;99.90;;;;;;4945900;29;20027;-92
2021/01/14 12:14:14;;;;;;;16.08;5.43;;;3.20;99.90;;;;;;4944452;29;20597;-91
2021/01/14 12:16:48;;;;;;;13.82;5.38;;;3.30;99.90;;;;;;4941099;29;20078;-90
2021/01/14 12:19:16;;;;;;;12.02;5.18;;;3.20;99.90;;;;;;4951836;29;20023;-88
2021/01/14 12:21:44;;;;;;;20.65;5.47;;;3.30;99.90;;;;;;4953691;29;20034;-89
2021/01/14 12:24:10;;;;;;;14.10;5.80;;;3.20;99.90;;;;;;4950617;29;20039;-89
2021/01/14 12:26:36;;;;;;;15.95;5.97;;;3.40;99.90;;;;;;4940954;29;20035;-90
2021/01/14 12:29:03;;;;;;;15.45;4.93;;;3.30;99.90;;;;;;4940130;29;20028;-88
2021/01/14 12:31:34;;;;;;;13.35;4.88;;;3.30;99.90;;;;;;4940059;29;20038;-88
2021/01/14 12:33:59;;;;;;;11.77;4.75;;;3.20;99.90;;;;;;4939088;29;20482;-89
2021/01/14 12:36:25;;;;;;;14.60;5.63;;;3.30;99.90;;;;;;4938686;29;20035;-89
2021/01/14 12:38:52;;;;;;;19.27;5.15;;;3.30;99.90;;;;;;4934737;29;20051;-89
2021/01/14 12:41:18;;;;;;;13.35;5.32;;;3.30;99.90;;;;;;4939164;29;20027;-90
2021/01/14 12:43:43;;;;;;;7.30;4.80;;;3.30;99.90;;;;;;4924251;29;20493;-88
2021/01/14 12:46:12;;;;;;;12.38;4.53;;;3.30;99.90;;;;;;4923317;29;20047;-88
2021/01/14 12:48:38;;;;;;;14.65;6.47;;;3.30;99.90;;;;;;4924037;29;20103;-89
2021/01/14 12:51:05;;;;;;;14.30;5.60;;;3.30;99.90;;;;;;4924192;29;20031;-87
2021/01/14 12:53:31;;;;;;;15.32;5.95;;;3.30;99.90;;;;;;4926106;29;20032;-89
2021/01/14 12:55:57;;;;;;;14.70;5.78;;;3.20;99.90;;;;;;4927619;29;20090;-87
2021/01/14 12:58:23;;;;;;;12.68;5.60;;;3.30;99.90;;;;;;4943321;29;20028;-89
2021/01/14 13:00:49;;;;;;;13.15;6.05;;;3.30;99.90;;;;;;4927356;29;20070;-90
2021/01/14 13:03:20;;;;;;;15.55;5.95;;;3.30;99.90;;;;;;4929003;29;20389;-88
2021/01/14 13:05:47;;;;;;;17.05;6.10;;;3.40;99.90;;;;;;4911215;29;20040;-92
2021/01/14 13:08:13;;;;;;;14.15;5.95;;;3.40;99.90;;;;;;4909258;29;20036;-89
2021/01/14 13:10:38;;;;;;;12.85;5.57;;;3.40;99.90;;;;;;4925166;29;20036;-91